Time;durP1;ratioP1;P1;durP2;ratioP2;P2;SDS_P1;SDS_P2;PMS_P1;PMS_P2;Temp;Humidity;BMP_temperature;BMP_pressure;BME280_temperature;BME280_humidity;BME280_pressure;Samples;Min_cycle;Max_cycle;Signal;HPM_P1;HPM_P2
2022/08/15 00:01:30;;;;;;;5.78;3.60;;;;;;;27.83;36.79;100238.28;4950918;29;20038;-79
2022/08/15 00:04:01;;;;;;;5.15;3.58;;;;;;;27.82;36.47;100231.19;4949505;29;20398;-79
2022/08/15 00:06:51;;;;;;;3.88;3.13;;;;;;;28.26;36.74;100300.03;4949649;29;20047;-79
2022/08/15 00:09:24;;;;;;;6.45;3.58;;;;;;;28.35;36.50;100305.81;4950911;29;20058;-79
2022/08/15 00:12:11;;;;;;;5.00;3.42;;;;;;;28.24;36.50;100280.38;4950958;29;20137;-78
2022/08/15 00:14:58;;;;;;;3.88;3.58;;;;;;;28.45;36.06;100296.88;4951032;29;20575;-79
2022/08/15 00:17:25;;;;;;;5.10;3.55;;;;;;;27.68;36.21;100189.88;4950479;29;20051;-81
2022/08/15 00:20:13;;;;;;;5.88;3.08;;;;;;;28.39;36.02;100303.41;4952409;29;20122;-79
2022/08/15 00:22:49;;;;;;;3.53;3.22;;;;;;;28.24;35.71;100265.91;4954792;29;20102;-79
2022/08/15 00:25:17;;;;;;;3.20;2.90;;;;;;;27.67;35.79;100174.56;4963196;29;20525;-79
2022/08/15 00:27:52;;;;;;;5.40;3.00;;;;;;;27.98;35.72;100215.78;4968179;29;20039;-78
2022/08/15 00:30:21;;;;;;;3.40;3.10;;;;;;;28.22;35.86;100273.53;4957231;29;20125;-79
2022/08/15 00:32:56;;;;;;;3.90;3.50;;;;;;;28.22;35.87;100260.69;4949361;29;20047;-79
2022/08/15 00:35:45;;;;;;;3.47;3.17;;;;;;;26.93;35.87;100053.47;4949439;29;20137;-79
2022/08/15 00:38:29;;;;;;;4.40;3.65;;;;;;;28.39;36.13;100281.56;4949302;29;20051;-79
2022/08/15 00:44:23;;;;;;;9.13;3.92;;;;;;;28.37;36.08;100275.53;4949899;29;20051;-78
2022/08/15 00:47:14;;;;;;;4.05;3.65;;;;;;;28.12;36.38;100244.25;4935867;29;20319;-79
2022/08/15 00:49:43;;;;;;;;;;;;;;;28.28;36.87;100283.41;4948947;29;20051;-79
2022/08/15 00:52:30;;;;;;;3.50;3.20;;;;;;;28.10;36.90;100265.53;4949543;29;19922;-80
2022/08/15 00:55:18;;;;;;;3.25;2.95;;;;;;;28.31;36.86;100294.63;4949015;29;20055;-79
2022/08/15 00:57:52;;;;;;;7.57;3.60;;;;;;;28.16;36.98;100283.59;4949156;29;20051;-79
2022/08/15 01:00:31;;;;;;;3.88;3.58;;;;;;;28.22;37.33;100298.91;4949096;29;20134;-80
2022/08/15 01:03:11;;;;;;;4.18;3.72;;;;;;;28.18;37.26;100286.03;4948342;29;20073;-80
2022/08/15 01:05:41;;;;;;;4.55;3.85;;;;;;;28.18;37.63;100291.50;4949840;29;20137;-79
2022/08/15 01:08:16;;;;;;;4.57;3.60;;;;;;;28.11;37.60;100291.75;4948866;29;20043;-78
2022/08/15 01:10:47;;;;;;;4.78;3.60;;;;;;;27.92;37.73;100273.03;4932799;29;20605;-79
2022/08/15 01:13:30;;;;;;;3.70;3.40;;;;;;;28.21;38.08;100291.81;4948855;29;20056;-79
2022/08/15 01:16:20;;;;;;;4.40;3.50;;;;;;;27.85;38.05;100255.22;4949036;29;20047;-79
2022/08/15 01:19:08;;;;;;;8.40;3.85;;;;;;;28.17;38.11;100295.31;4948502;29;20512;-79
2022/08/15 01:22:00;;;;;;;4.75;3.50;;;;;;;28.11;38.43;100270.72;4948222;29;20513;-79
2022/08/15 01:24:56;;;;;;;3.85;3.55;;;;;;;28.16;38.53;100291.78;4948393;29;20043;-80
2022/08/15 01:27:52;;;;;;;3.95;3.65;;;;;;;28.05;38.71;100282.66;4948409;29;20473;-80
2022/08/15 01:30:24;;;;;;;5.43;3.28;;;;;;;28.11;38.78;100286.28;4948457;29;20055;-82
2022/08/15 01:33:11;;;;;;;4.45;3.78;;;;;;;27.89;38.26;100246.28;4948871;29;20050;-80
2022/08/15 01:35:41;;;;;;;4.88;4.07;;;;;;;28.11;38.77;100294.47;4949158;29;20142;-80
2022/08/15 01:38:37;;;;;;;4.30;3.88;;;;;;;28.06;39.14;100281.59;4951980;29;20055;-80
2022/08/15 01:41:30;;;;;;;4.18;3.80;;;;;;;28.19;38.64;100302.16;4937868;29;20142;-81
2022/08/15 01:44:08;;;;;;;5.47;3.97;;;;;;;28.20;38.83;100306.53;4948576;29;20508;-79
2022/08/15 01:47:22;;;;;;;5.60;3.92;;;;;;;27.91;39.28;100271.38;4949229;29;20051;-82
2022/08/15 01:50:07;;;;;;;4.03;3.72;;;;;;;26.82;39.50;100115.19;4948044;29;20055;-80
2022/08/15 01:53:02;;;;;;;4.45;4.07;;;;;;;28.00;39.63;100303.63;4948023;29;20584;-80
2022/08/15 01:55:46;;;;;;;5.70;4.28;;;;;;;27.98;39.74;100297.63;4933290;29;20055;-80
2022/08/15 01:58:22;;;;;;;9.23;3.88;;;;;;;27.39;39.34;100201.06;4948505;29;20075;-81
2022/08/15 02:00:56;;;;;;;4.75;3.67;;;;;;;27.95;39.63;100309.06;4948118;29;20078;-80
2022/08/15 02:03:33;;;;;;;6.45;3.65;;;;;;;27.64;39.67;100255.00;4930953;28;20059;-81
2022/08/15 02:06:17;;;;;;;3.55;3.25;;;;;;;27.92;39.89;100294.84;4931205;29;20107;-82
2022/08/15 02:08:44;;;;;;;4.40;3.95;;;;;;;27.98;39.34;100283.97;4929290;29;20059;-81
2022/08/15 02:11:15;;;;;;;6.35;3.10;;;;;;;27.89;39.13;100264.50;4930593;29;20323;-80
2022/08/15 02:13:53;;;;;;;3.80;3.50;;;;;;;27.96;39.37;100275.22;4929869;29;20073;-80
2022/08/15 02:16:21;;;;;;;4.50;4.10;;;;;;;27.53;38.98;100226.00;4929927;29;20150;-82
2022/08/15 02:18:52;;;;;;;3.80;3.50;;;;;;;27.36;39.25;100166.16;4930332;29;20104;-83
2022/08/15 02:21:25;;;;;;;6.68;3.83;;;;;;;27.87;39.39;100264.78;4931380;29;20058;-82
2022/08/15 02:24:06;;;;;;;5.65;3.70;;;;;;;27.87;39.64;100278.44;4929793;29;20129;-82
2022/08/15 02:26:48;;;;;;;4.72;3.80;;;;;;;27.74;39.58;100259.72;4930024;29;20321;-83
2022/08/15 02:29:18;;;;;;;4.90;3.30;;;;;;;27.63;39.65;100244.38;4928662;29;20062;-82
2022/08/15 02:31:51;;;;;;;6.53;3.90;;;;;;;27.83;39.34;100274.56;4929685;29;20066;-82
2022/08/15 02:34:19;;;;;;;6.43;3.47;;;;;;;27.88;39.48;100255.53;4929521;29;20047;-81
2022/08/15 02:36:46;;;;;;;4.22;3.47;;;;;;;27.06;39.71;100151.13;4928936;29;20165;-82
2022/08/15 02:39:20;;;;;;;5.88;4.03;;;;;;;27.80;39.73;100275.06;4931576;29;20055;-81
2022/08/15 02:41:51;;;;;;;3.95;3.63;;;;;;;27.66;39.53;100252.03;4928792;29;20063;-82
2022/08/15 02:44:21;;;;;;;3.80;3.47;;;;;;;27.27;40.04;100205.84;4929102;29;20059;-82
2022/08/15 02:46:52;;;;;;;4.53;3.70;;;;;;;27.73;40.13;100285.34;4929310;29;20055;-82
2022/08/15 02:49:34;;;;;;;7.13;3.92;;;;;;;27.57;39.93;100259.00;4929000;29;20059;-83
2022/08/15 02:52:15;;;;;;;3.65;3.35;;;;;;;27.44;39.71;100231.09;4930662;29;20047;-82
2022/08/15 02:54:48;;;;;;;5.13;3.70;;;;;;;27.65;40.18;100272.19;4928811;29;20054;-82
2022/08/15 02:57:29;;;;;;;4.85;3.05;;;;;;;26.66;39.91;100107.09;4930194;29;20183;-82
2022/08/15 02:59:56;;;;;;;4.85;3.95;;;;;;;27.70;39.99;100280.44;4930936;29;20198;-82
2022/08/15 03:02:25;;;;;;;4.05;3.60;;;;;;;27.38;40.15;100240.31;4929393;29;20492;-83
2022/08/15 03:04:58;;;;;;;4.45;3.50;;;;;;;27.36;40.33;100237.00;4930572;29;20146;-82
2022/08/15 03:07:26;;;;;;;3.40;3.10;;;;;;;27.57;40.02;100265.28;4927559;29;20047;-83
2022/08/15 03:09:54;;;;;;;7.78;3.53;;;;;;;27.66;40.27;100282.00;4930349;29;20051;-82
2022/08/15 03:12:23;;;;;;;4.00;3.60;;;;;;;27.65;39.99;100278.47;4928712;29;20051;-82
2022/08/15 03:14:58;;;;;;;4.82;3.53;;;;;;;27.67;39.63;100280.91;4929052;28;20082;-82
2022/08/15 03:17:28;;;;;;;3.30;3.10;;;;;;;27.45;39.57;100265.47;4929560;29;20528;-82
2022/08/15 03:19:55;;;;;;;3.72;3.10;;;;;;;27.06;39.73;100205.59;4928784;29;20067;-82
2022/08/15 03:22:24;;;;;;;4.35;3.30;;;;;;;27.37;39.79;100262.34;4928579;29;20158;-82
2022/08/15 03:25:11;;;;;;;3.67;3.30;;;;;;;26.60;39.88;100147.88;4927705;29;20591;-81
2022/08/15 03:27:40;;;;;;;3.42;3.13;;;;;;;27.10;39.70;100227.69;4929010;29;20497;-82
2022/08/15 03:30:10;;;;;;;3.20;2.90;;;;;;;27.03;39.60;100227.88;4929225;29;20051;-81
2022/08/15 03:32:56;;;;;;;4.28;3.20;;;;;;;27.26;39.37;100275.88;4929284;29;20063;-82
2022/08/15 03:35:27;;;;;;;3.33;3.10;;;;;;;27.03;39.57;100246.94;4929089;29;20055;-82
2022/08/15 03:37:57;;;;;;;3.45;3.15;;;;;;;26.93;39.63;100226.94;4928942;29;20051;-82
2022/08/15 03:40:26;;;;;;;5.38;3.50;;;;;;;27.32;39.14;100284.09;4928739;29;20050;-81
2022/08/15 03:43:02;;;;;;;3.72;3.42;;;;;;;27.26;39.46;100291.41;4933851;29;20532;-81
2022/08/15 03:45:42;;;;;;;4.07;3.30;;;;;;;27.05;39.37;100247.53;4914225;29;20066;-83
2022/08/15 03:48:10;;;;;;;3.42;3.13;;;;;;;26.65;39.21;100206.97;4929071;29;20703;-83
2022/08/15 03:50:51;;;;;;;5.60;3.25;;;;;;;27.09;39.30;100258.75;4917525;29;20052;-81
2022/08/15 03:53:27;;;;;;;3.28;2.97;;;;;;;27.21;39.21;100283.16;4937520;29;20169;-83
2022/08/15 03:55:57;;;;;;;3.40;3.10;;;;;;;27.21;38.44;100285.88;4956337;28;20189;-81
2022/08/15 03:58:25;;;;;;;7.05;2.92;;;;;;;27.13;38.52;100286.28;4944211;29;20059;-83
2022/08/15 04:00:59;;;;;;;4.43;3.38;;;;;;;27.08;37.90;100285.16;4958019;28;20111;-83
2022/08/15 04:03:29;;;;;;;3.03;2.83;;;;;;;27.11;37.91;100283.81;4961440;28;20082;-83
2022/08/15 04:06:02;;;;;;;3.42;3.13;;;;;;;27.10;37.83;100286.81;4964108;28;20082;-82
2022/08/15 04:08:34;;;;;;;3.40;3.08;;;;;;;26.72;37.93;100225.84;4952442;29;20111;-83
2022/08/15 04:11:24;;;;;;;5.28;3.08;;;;;;;27.04;37.61;100278.56;4949565;29;20138;-82
2022/08/15 04:14:06;;;;;;;5.07;3.20;;;;;;;27.02;37.31;100275.28;4956210;28;20519;-82
2022/08/15 04:16:57;;;;;;;3.58;3.10;;;;;;;26.98;37.45;100285.03;4941638;28;20464;-82
2022/08/15 04:19:32;;;;;;;3.13;2.83;;;;;;;26.96;37.33;100289.91;4943467;28;20043;-81
2022/08/15 04:22:13;;;;;;;4.05;3.75;;;;;;;26.94;37.39;100286.59;4962352;28;20485;-80
2022/08/15 04:25:22;;;;;;;4.88;3.40;;;;;;;26.55;36.65;100229.44;4961296;28;20253;-79
2022/08/15 04:27:52;;;;;;;3.35;3.00;;;;;;;26.69;36.68;100253.59;4964039;28;20270;-80
2022/08/15 04:30:22;;;;;;;3.65;3.13;;;;;;;26.78;37.04;100265.72;4964366;28;20102;-81
2022/08/15 04:32:53;;;;;;;2.75;2.55;;;;;;;26.64;36.67;100251.63;4963990;28;20129;-80
2022/08/15 04:35:27;;;;;;;4.88;2.88;;;;;;;26.89;36.69;100302.06;4950052;29;20049;-79
2022/08/15 04:37:57;;;;;;;5.10;3.20;;;;;;;26.71;36.88;100275.94;4964194;28;20447;-81
2022/08/15 04:40:24;;;;;;;3.30;3.00;;;;;;;26.59;36.65;100271.44;4949051;29;20129;-80
2022/08/15 04:43:12;;;;;;;5.47;2.95;;;;;;;26.80;36.36;100299.78;4960879;28;20559;-81
2022/08/15 04:45:40;;;;;;;4.25;3.08;;;;;;;26.81;36.20;100306.84;4963171;28;20047;-79
2022/08/15 04:48:14;;;;;;;8.55;3.30;;;;;;;26.72;36.59;100297.47;4948613;29;20070;-79
2022/08/15 04:50:48;;;;;;;6.65;3.42;;;;;;;26.18;36.27;100194.59;4964004;28;20265;-80
2022/08/15 04:53:16;;;;;;;5.10;3.15;;;;;;;26.76;36.24;100293.19;4958760;28;20481;-80
2022/08/15 04:55:51;;;;;;;2.60;2.40;;;;;;;26.77;36.51;100302.97;4948504;29;20188;-81
2022/08/15 04:58:19;;;;;;;7.07;2.88;;;;;;;26.78;36.32;100301.09;4947345;29;20051;-80
2022/08/15 05:01:11;;;;;;;4.45;3.45;;;;;;;26.73;36.65;100295.59;4948169;29;20146;-80
2022/08/15 05:03:38;;;;;;;4.93;2.90;;;;;;;26.74;37.22;100302.66;4947894;29;20063;-83
2022/08/15 05:06:09;;;;;;;3.22;3.03;;;;;;;26.71;36.78;100301.28;4947712;29;20260;-80
2022/08/15 05:08:56;;;;;;;2.97;2.70;;;;;;;26.77;36.82;100321.22;4949220;29;20047;-80
2022/08/15 05:11:23;;;;;;;5.13;3.45;;;;;;;26.76;37.09;100320.41;4947403;29;20054;-80
2022/08/15 05:13:50;;;;;;;3.40;3.10;;;;;;;26.77;37.32;100322.03;4947349;29;20595;-80
2022/08/15 05:16:17;;;;;;;3.35;3.08;;;;;;;26.42;37.89;100259.72;4947705;29;20102;-82
2022/08/15 05:18:44;;;;;;;4.40;3.20;;;;;;;26.07;38.46;100217.31;4947999;29;20110;-81
2022/08/15 05:21:12;;;;;;;2.97;2.70;;;;;;;26.52;37.77;100289.81;4948987;29;20087;-81
2022/08/15 05:23:41;;;;;;;5.18;3.38;;;;;;;26.37;38.03;100262.38;4947601;29;20497;-80
2022/08/15 05:26:11;;;;;;;3.55;2.83;;;;;;;26.50;36.33;100272.91;4948877;29;20051;-80
2022/08/15 05:28:58;;;;;;;3.65;2.97;;;;;;;26.82;37.47;100326.75;4947508;29;20053;-81
2022/08/15 05:31:26;;;;;;;2.92;2.72;;;;;;;26.71;37.28;100300.47;4947111;29;20059;-80
2022/08/15 05:34:00;;;;;;;3.60;3.30;;;;;;;26.80;37.11;100309.84;4947332;29;20058;-80
2022/08/15 05:36:28;;;;;;;4.10;3.60;;;;;;;26.93;36.85;100328.53;4946334;28;20063;-80
2022/08/15 05:39:12;;;;;;;4.85;3.53;;;;;;;26.93;35.69;100314.09;4933544;29;20145;-80
2022/08/15 05:42:11;;;;;;;4.28;3.20;;;;;;;26.96;35.47;100303.50;4952013;29;20054;-81
2022/08/15 05:45:00;;;;;;;3.92;3.53;;;;;;;26.93;36.01;100298.56;4938708;28;20533;-81
2022/08/15 05:47:45;;;;;;;8.50;3.67;;;;;;;27.11;36.38;100329.31;4954635;28;20056;-80
2022/08/15 05:50:48;;;;;;;4.07;2.80;;;;;;;27.13;37.77;100324.44;4952077;28;20055;-82
2022/08/15 05:53:31;;;;;;;3.38;2.85;;;;;;;27.08;37.26;100323.28;4932611;29;20052;-81
2022/08/15 05:56:01;;;;;;;3.25;2.95;;;;;;;27.16;37.16;100329.38;4935686;29;20082;-82
2022/08/15 05:58:41;;;;;;;4.72;3.10;;;;;;;27.22;38.01;100333.84;4949181;28;20157;-80
2022/08/15 06:01:18;;;;;;;7.40;3.13;;;;;;;27.10;37.81;100312.16;4944514;29;20358;-80
2022/08/15 06:03:56;;;;;;;3.88;2.80;;;;;;;27.17;37.43;100320.97;4930875;29;20419;-80
2022/08/15 06:06:28;;;;;;;3.70;2.90;;;;;;;27.16;37.90;100315.75;4920735;29;20473;-80
2022/08/15 06:09:04;;;;;;;3.60;2.78;;;;;;;27.32;37.79;100328.53;4950509;29;20047;-80
2022/08/15 06:11:38;;;;;;;6.28;3.33;;;;;;;27.37;38.84;100327.78;4951316;29;20050;-80
2022/08/15 06:14:25;;;;;;;4.20;3.40;;;;;;;27.25;38.48;100303.38;4951115;29;20106;-81
2022/08/15 06:17:38;;;;;;;3.97;3.08;;;;;;;27.46;37.60;100323.53;4950369;29;20101;-81
2022/08/15 06:20:11;;;;;;;3.85;3.00;;;;;;;27.56;36.21;100317.34;4931669;29;20048;-81
2022/08/15 06:23:38;;;;;;;7.05;3.13;;;;;;;27.69;34.89;100325.13;4950434;29;20141;-82
2022/08/15 06:26:11;;;;;;;3.40;2.65;;;;;;;27.78;34.44;100326.31;4930428;29;20529;-80
2022/08/15 06:29:08;;;;;;;2.85;2.65;;;;;;;27.56;33.71;100263.66;4950218;29;20122;-81
2022/08/15 06:31:41;;;;;;;2.60;2.40;;;;;;;28.02;34.09;100309.66;4951317;28;20358;-80
2022/08/15 06:34:07;;;;;;;5.35;2.75;;;;;;;28.19;33.39;100321.28;4949483;29;20235;-81
2022/08/15 06:36:57;;;;;;;2.58;2.38;;;;;;;28.19;33.08;100318.53;4950407;29;20055;-81
2022/08/15 06:39:34;;;;;;;;;;;;;;;28.14;34.18;100332.16;4950474;29;20672;-81
2022/08/15 06:42:21;;;;;;;3.35;2.65;;;;;;;27.48;33.29;100185.06;4934891;29;20372;-82
2022/08/15 06:44:58;;;;;;;3.25;2.95;;;;;;;28.31;33.40;100305.53;4921746;29;20051;-81
2022/08/15 06:47:28;;;;;;;;;;;;;;;28.34;34.74;100318.66;4951434;29;20489;-80
2022/08/15 06:50:07;;;;;;;4.00;2.80;;;;;;;28.32;35.54;100323.53;4949517;28;19926;-81
2022/08/15 06:52:50;;;;;;;3.15;2.80;;;;;;;27.72;35.21;100229.19;4950354;28;20069;-81
2022/08/15 06:55:29;;;;;;;5.30;3.10;;;;;;;28.34;35.65;100328.75;4952231;29;20207;-80
2022/08/15 06:58:14;;;;;;;3.88;3.58;;;;;;;28.18;36.30;100269.66;4957467;28;20114;-80
2022/08/15 07:01:24;;;;;;;6.40;3.28;;;;;;;28.58;36.20;100334.69;4951580;29;20055;-78
2022/08/15 07:04:30;;;;;;;4.82;3.40;;;;;;;28.12;36.82;100255.16;4952216;29;20051;-78
2022/08/15 07:07:14;;;;;;;3.15;2.90;;;;;;;28.67;36.07;100337.78;4952092;29;20051;-77
2022/08/15 07:10:06;;;;;;;4.68;3.33;;;;;;;28.75;35.97;100335.34;4952359;29;20055;-78
2022/08/15 07:12:52;;;;;;;4.78;2.92;;;;;;;28.50;36.52;100316.91;4952413;29;20136;-77
2022/08/15 07:15:22;;;;;;;10.07;3.38;;;;;;;28.65;36.11;100339.94;4951061;29;20556;-77
2022/08/15 07:17:52;;;;;;;3.75;3.30;;;;;;;28.62;35.94;100330.38;4950928;29;20153;-78
2022/08/15 07:20:24;;;;;;;3.40;3.03;;;;;;;28.42;35.94;100302.88;4952393;29;20454;-77
2022/08/15 07:23:20;;;;;;;3.85;3.47;;;;;;;28.81;36.29;100357.22;4951866;29;20059;-77
2022/08/15 07:25:50;;;;;;;3.70;3.40;;;;;;;28.87;36.63;100356.19;4951868;29;20051;-77
2022/08/15 07:28:26;;;;;;;4.03;3.03;;;;;;;28.45;36.67;100285.97;4935387;29;20055;-78
2022/08/15 07:31:22;;;;;;;5.53;3.40;;;;;;;28.59;36.73;100306.28;4934934;29;20110;-78
2022/08/15 07:33:56;;;;;;;6.95;3.38;;;;;;;28.84;36.94;100354.00;4950654;29;20054;-78
2022/08/15 07:36:33;;;;;;;4.60;3.75;;;;;;;28.52;37.12;100297.50;4950317;29;20055;-79
2022/08/15 07:39:21;;;;;;;4.20;3.78;;;;;;;28.89;37.14;100365.78;4934350;29;20059;-78
2022/08/15 07:42:36;;;;;;;5.25;3.47;;;;;;;28.94;37.04;100356.78;4950861;29;20055;-76
2022/08/15 07:45:36;;;;;;;3.80;3.50;;;;;;;28.90;37.32;100333.81;4948330;29;20146;-82
2022/08/15 07:48:03;;;;;;;3.90;3.50;;;;;;;28.89;37.61;100345.81;4952677;29;20051;-81
2022/08/15 07:50:42;;;;;;;4.93;3.13;;;;;;;28.77;37.58;100327.72;4951836;29;20363;-81
2022/08/15 07:53:21;;;;;;;3.33;3.03;;;;;;;28.57;37.13;100286.66;4946597;29;20055;-80
2022/08/15 07:56:28;;;;;;;4.28;3.20;;;;;;;28.85;37.83;100334.59;4930843;29;20063;-81
2022/08/15 07:59:21;;;;;;;4.47;3.53;;;;;;;29.02;37.47;100359.00;4928547;29;20434;-79
2022/08/15 08:01:59;;;;;;;7.43;3.63;;;;;;;29.04;37.49;100356.84;4928280;29;20195;-80
2022/08/15 08:04:34;;;;;;;3.50;3.30;;;;;;;29.16;37.56;100368.41;4915035;29;20083;-80
2022/08/15 08:07:23;;;;;;;5.07;3.63;;;;;;;29.01;37.92;100338.25;4930044;29;20142;-80
2022/08/15 08:10:27;;;;;;;3.70;3.40;;;;;;;29.28;37.61;100361.91;4931406;28;20135;-79
2022/08/15 08:13:04;;;;;;;5.03;3.58;;;;;;;29.26;38.10;100350.41;4945055;29;20137;-81
2022/08/15 08:16:19;;;;;;;3.85;3.33;;;;;;;28.96;39.17;100310.91;4934316;29;20114;-82
2022/08/15 08:19:20;;;;;;;5.25;3.85;;;;;;;29.27;38.55;100349.31;4949189;29;20133;-81
2022/08/15 08:22:30;;;;;;;4.38;3.50;;;;;;;29.26;38.95;100350.41;4927569;29;20058;-81
2022/08/15 08:25:48;;;;;;;4.00;3.70;;;;;;;29.39;38.72;100356.19;4923487;29;20054;-82
2022/08/15 08:28:46;;;;;;;8.48;4.07;;;;;;;29.00;38.74;100298.31;4934256;29;20401;-83
2022/08/15 08:31:46;;;;;;;3.70;3.40;;;;;;;29.39;38.88;100358.09;4949186;29;20113;-81
2022/08/15 08:34:32;;;;;;;4.85;3.97;;;;;;;29.47;38.88;100357.63;4947974;29;20158;-82
2022/08/15 08:37:14;;;;;;;4.18;3.78;;;;;;;29.65;38.17;100360.94;4948092;29;20426;-80
2022/08/15 08:43:00;;;;;;;5.55;4.10;;;;;;;29.78;37.11;100361.28;4949112;29;20043;-79
2022/08/15 08:45:53;;;;;;;4.60;4.20;;;;;;;29.75;38.00;100352.78;4948757;29;20073;-81
2022/08/15 08:48:48;;;;;;;4.20;3.80;;;;;;;29.95;37.45;100362.94;4928981;29;20064;-80
2022/08/15 08:51:42;;;;;;;5.55;4.03;;;;;;;30.16;36.65;100356.41;4966937;28;20317;-82
2022/08/15 08:54:19;;;;;;;;;;;;;;;30.08;36.83;100358.88;4964147;29;20143;-83
2022/08/15 08:57:04;;;;;;;5.38;3.58;;;;;;;30.11;37.41;100361.06;4931457;29;19927;-81
2022/08/15 08:59:38;;;;;;;5.63;4.05;;;;;;;30.37;36.83;100365.50;4932045;29;20047;-81
2022/08/15 09:02:29;;;;;;;4.65;3.85;;;;;;;30.27;37.25;100367.38;4944614;29;20068;-81
2022/08/15 09:05:07;;;;;;;8.10;3.88;;;;;;;30.13;37.08;100331.50;4928739;29;20048;-81
2022/08/15 09:07:39;;;;;;;4.18;3.78;;;;;;;30.23;37.20;100347.94;4928849;29;20063;-81
2022/08/15 09:10:08;;;;;;;5.10;4.00;;;;;;;30.40;36.91;100353.97;4928710;29;20055;-81
2022/08/15 09:15:38;;;;;;;6.03;3.90;;;;;;;30.60;36.59;100364.09;4937065;29;20409;-80
2022/08/15 09:18:26;;;;;;;4.15;3.45;;;;;;;30.70;36.05;100341.34;4932580;29;20502;-80
2022/08/15 09:20:56;;;;;;;4.50;3.95;;;;;;;30.83;36.24;100345.47;4935101;29;20051;-80
2022/08/15 09:23:24;;;;;;;4.40;4.00;;;;;;;30.68;35.89;100299.69;4935471;29;20456;-79
2022/08/15 09:26:06;;;;;;;4.55;3.60;;;;;;;31.11;35.62;100333.03;4951198;29;20052;-80
2022/08/15 09:28:59;;;;;;;4.68;3.45;;;;;;;31.16;35.57;100338.50;4951683;29;20425;-80
2022/08/15 09:31:33;;;;;;;4.47;4.07;;;;;;;31.26;35.57;100326.66;4951774;29;20047;-80
2022/08/15 09:34:12;;;;;;;4.88;3.70;;;;;;;31.36;35.26;100331.28;4952239;29;20047;-80
2022/08/15 09:37:14;;;;;;;4.70;3.83;;;;;;;31.44;34.47;100325.25;4950870;28;20111;-81
2022/08/15 09:40:05;;;;;;;5.13;4.25;;;;;;;31.14;34.87;100269.41;4950234;29;20129;-80
2022/08/15 09:43:19;;;;;;;5.40;3.63;;;;;;;31.66;34.06;100325.69;4951773;29;20141;-80
2022/08/15 09:46:09;;;;;;;4.10;3.65;;;;;;;31.42;33.75;100275.34;4951776;28;20551;-80
2022/08/15 09:49:17;;;;;;;4.18;3.78;;;;;;;31.59;33.64;100258.50;4951469;29;20394;-80
2022/08/15 09:51:57;;;;;;;3.95;3.65;;;;;;;32.01;33.84;100315.56;4955392;29;20055;-81
2022/08/15 09:54:41;;;;;;;4.25;3.95;;;;;;;31.40;33.45;100198.03;4948959;29;20060;-80
2022/08/15 09:57:29;;;;;;;4.07;3.75;;;;;;;32.27;33.18;100307.13;4931735;29;20455;-81
2022/08/15 10:00:15;;;;;;;4.93;3.72;;;;;;;32.42;33.70;100293.25;4931791;29;20423;-81
2022/08/15 10:02:52;;;;;;;6.22;4.20;;;;;;;32.62;33.48;100291.44;4944573;29;20232;-81
2022/08/15 10:05:42;;;;;;;7.18;3.83;;;;;;;32.70;32.64;100282.56;4930725;29;20050;-80
2022/08/15 10:08:13;;;;;;;8.68;4.35;;;;;;;32.67;32.64;100255.66;4931618;29;20086;-81
2022/08/15 10:11:10;;;;;;;7.13;4.47;;;;;;;32.92;32.19;100285.59;4931506;29;20190;-80
2022/08/15 10:13:40;;;;;;;4.10;3.80;;;;;;;32.61;32.13;100224.69;4947301;29;20055;-81
2022/08/15 10:16:38;;;;;;;6.80;4.10;;;;;;;33.18;32.07;100285.28;4932881;29;20461;-82
2022/08/15 10:19:30;;;;;;;4.68;3.90;;;;;;;33.20;31.52;100294.06;4932160;29;20048;-82
2022/08/15 10:22:21;;;;;;;7.68;3.90;;;;;;;33.14;31.92;100268.56;4931101;29;20491;-81
2022/08/15 10:25:17;;;;;;;5.45;3.95;;;;;;;33.44;31.59;100290.47;4929822;29;20110;-81
2022/08/15 10:27:56;;;;;;;4.45;3.97;;;;;;;33.34;31.55;100261.97;4931493;29;20134;-81
2022/08/15 10:30:30;;;;;;;5.50;4.35;;;;;;;33.28;31.55;100230.16;4931388;29;20114;-82
2022/08/15 10:33:31;;;;;;;6.45;4.22;;;;;;;33.99;31.10;100280.53;4917619;29;20074;-81
2022/08/15 10:36:17;;;;;;;7.07;4.38;;;;;;;33.66;31.16;100221.91;4931365;29;20537;-80
2022/08/15 10:39:19;;;;;;;5.43;4.93;;;;;;;34.10;30.69;100270.19;4931762;29;20224;-82
2022/08/15 10:42:01;;;;;;;6.03;3.70;;;;;;;34.11;30.00;100238.78;4924912;29;20055;-82
2022/08/15 10:44:50;;;;;;;5.13;4.20;;;;;;;34.31;30.24;100267.09;4918551;29;20142;-82
2022/08/15 10:47:54;;;;;;;5.68;4.40;;;;;;;34.27;30.49;100275.13;4930889;29;20310;-82
2022/08/15 10:50:42;;;;;;;6.67;4.03;;;;;;;34.30;30.53;100279.22;4931094;29;20075;-82
2022/08/15 10:53:28;;;;;;;7.57;4.00;;;;;;;34.50;30.71;100267.84;4937620;29;20512;-80
2022/08/15 10:56:09;;;;;;;6.80;4.65;;;;;;;34.72;30.13;100263.59;4930927;29;20396;-82
2022/08/15 10:59:05;;;;;;;4.47;4.07;;;;;;;34.83;30.25;100259.47;4931127;29;20062;-80
2022/08/15 11:01:37;;;;;;;4.15;3.75;;;;;;;34.74;30.14;100228.28;4929693;29;20055;-82
2022/08/15 11:04:13;;;;;;;5.88;3.97;;;;;;;34.75;29.95;100208.66;4931991;29;20107;-81
2022/08/15 11:07:02;;;;;;;4.95;3.75;;;;;;;35.26;29.67;100259.16;4931089;29;20056;-83
2022/08/15 11:09:32;;;;;;;10.13;4.30;;;;;;;35.49;29.69;100260.84;4946103;29;20139;-80
2022/08/15 11:12:05;;;;;;;6.18;4.53;;;;;;;35.66;29.00;100251.06;4930638;29;20139;-82
2022/08/15 11:14:43;;;;;;;4.43;4.05;;;;;;;35.79;29.08;100241.91;4930604;29;20052;-81
2022/08/15 11:17:18;;;;;;;4.32;3.88;;;;;;;35.81;28.69;100238.84;4930496;29;20085;-80
2022/08/15 11:19:49;;;;;;;4.50;3.88;;;;;;;35.76;28.49;100230.66;4930469;29;20082;-82
2022/08/15 11:23:00;;;;;;;5.07;4.57;;;;;;;35.64;28.65;100258.88;4930719;29;20167;-82
2022/08/15 11:25:30;;;;;;;8.00;4.53;;;;;;;35.44;29.70;100258.19;4930319;29;20052;-83
2022/08/15 11:28:18;;;;;;;5.47;4.22;;;;;;;35.47;30.01;100254.81;4930433;29;20063;-81
2022/08/15 11:31:11;;;;;;;4.40;4.00;;;;;;;35.33;29.97;100243.00;4934048;29;20494;-82
2022/08/15 11:33:41;;;;;;;4.55;4.13;;;;;;;35.34;29.80;100241.03;4949054;29;20369;-82
2022/08/15 11:36:16;;;;;;;7.32;4.85;;;;;;;35.21;29.38;100234.44;4949715;28;20121;-81
2022/08/15 11:38:59;;;;;;;5.53;4.25;;;;;;;35.06;29.50;100227.28;4948869;29;20135;-82
2022/08/15 11:41:58;;;;;;;5.07;4.15;;;;;;;34.61;29.58;100164.53;4929797;29;20306;-81
2022/08/15 11:44:37;;;;;;;6.53;3.90;;;;;;;35.27;29.76;100241.47;4951087;29;20055;-82
2022/08/15 11:47:05;;;;;;;5.55;4.10;;;;;;;35.16;29.24;100201.47;4949968;29;20055;-82
2022/08/15 11:49:41;;;;;;;6.45;4.45;;;;;;;35.50;28.99;100236.81;4949842;29;20068;-83
2022/08/15 11:52:11;;;;;;;6.00;4.88;;;;;;;35.77;28.99;100238.66;4949924;29;20055;-82
2022/08/15 11:55:40;;;;;;;5.60;4.65;;;;;;;36.04;28.28;100225.81;4965418;28;20066;-81
2022/08/15 11:58:13;;;;;;;5.22;4.38;;;;;;;35.73;28.36;100136.31;4950434;29;20600;-81
2022/08/15 12:00:51;;;;;;;5.90;4.38;;;;;;;36.53;27.62;100226.72;4965909;28;20224;-82
2022/08/15 12:03:21;;;;;;;5.10;4.70;;;;;;;36.74;27.83;100213.16;4965397;28;20059;-82
2022/08/15 12:06:14;;;;;;;19.98;4.55;;;;;;;36.64;27.24;100167.28;4963673;28;20063;-82
2022/08/15 12:09:21;;;;;;;5.07;4.43;;;;;;;37.20;27.19;100212.59;4963668;28;20138;-82
2022/08/15 12:12:37;;;;;;;5.78;4.18;;;;;;;37.36;26.58;100182.50;4963478;28;20138;-81
2022/08/15 12:15:17;;;;;;;6.27;3.97;;;;;;;37.75;26.43;100182.63;4939081;29;20055;-81
2022/08/15 12:18:06;;;;;;;4.50;4.10;;;;;;;38.11;25.84;100200.78;4965672;28;20131;-81
2022/08/15 12:21:05;;;;;;;5.00;4.60;;;;;;;38.21;25.55;100203.22;4965590;28;20055;-84
2022/08/15 12:24:06;;;;;;;4.93;4.45;;;;;;;38.35;25.78;100192.69;4966141;28;20059;-81
2022/08/15 12:26:34;;;;;;;16.33;5.38;;;;;;;38.73;25.29;100202.16;4918558;29;20043;-81
2022/08/15 12:29:13;;;;;;;6.47;4.53;;;;;;;38.76;25.12;100193.97;4951195;29;20059;-83
2022/08/15 12:31:41;;;;;;;23.60;5.93;;;;;;;38.21;24.86;100078.50;4950559;29;20065;-82
2022/08/15 12:34:17;;;;;;;5.10;4.03;;;;;;;38.79;24.71;100132.28;4950766;29;20054;-82
2022/08/15 12:37:02;;;;;;;7.82;4.38;;;;;;;39.04;24.78;100149.09;4964001;28;20059;-82
2022/08/15 12:39:38;;;;;;;7.22;4.43;;;;;;;39.36;24.60;100149.50;4964412;28;20626;-81
2022/08/15 12:42:09;;;;;;;5.13;4.72;;;;;;;39.68;24.21;100162.53;4950146;28;20099;-82